createdAt,value
2015-06-14T00:00:05.085Z,65
2015-06-14T00:00:23.523Z,65
2015-06-14T00:00:42.695Z,65
2015-06-14T00:01:01.226Z,65
2015-06-14T00:01:19.806Z,65
2015-06-14T00:01:38.306Z,65
2015-06-14T00:01:56.681Z,65
2015-06-14T00:02:15.105Z,65
2015-06-14T00:02:33.918Z,65
2015-06-14T00:02:52.371Z,65
2015-06-14T00:03:11.136Z,65
2015-06-14T00:03:29.623Z,65
2015-06-14T00:03:48.029Z,65
2015-06-14T00:04:06.466Z,65
2015-06-14T00:04:25.017Z,65
2015-06-14T00:04:43.392Z,65
2015-06-14T00:05:01.767Z,66
2015-06-14T00:05:20.283Z,66
2015-06-14T00:05:38.769Z,66
2015-06-14T00:05:57.629Z,65
2015-06-14T01:15:44.501Z,66
2015-06-14T01:16:03.016Z,78
2015-06-14T01:16:25.547Z,79
2015-06-14T01:16:43.160Z,79
2015-06-14T01:17:01.800Z,79
2015-06-14T01:17:20.457Z,79
2015-06-14T01:17:38.910Z,79
2015-06-14T01:17:57.443Z,79
2015-06-14T01:18:15.881Z,79
2015-06-14T01:18:35.459Z,79
2015-06-14T01:18:53.165Z,79
2015-06-14T01:19:11.493Z,79
2015-06-14T01:19:30.415Z,79
2015-06-14T01:19:49.087Z,79
2015-06-14T01:20:07.839Z,79
2015-06-14T01:20:26.511Z,79
2015-06-14T01:20:45.464Z,79
2015-06-14T01:21:03.357Z,79
2015-06-14T01:21:21.779Z,79
2015-06-14T01:21:40.310Z,79
2015-06-14T01:21:58.795Z,79
2015-06-14T01:22:17.203Z,79
2015-06-14T01:22:35.609Z,79
2015-06-14T01:22:54.125Z,79
2015-06-14T01:23:12.581Z,79
2015-06-14T01:23:31.097Z,79
2015-06-14T01:23:49.706Z,79
2015-06-14T01:24:08.409Z,79
2015-06-14T01:24:26.911Z,79
2015-06-14T01:24:45.364Z,79
2015-06-14T01:25:03.755Z,79
2015-06-14T01:25:22.383Z,79
2015-06-14T01:25:40.820Z,79
2015-06-14T01:25:59.336Z,79
2015-06-14T01:26:17.914Z,79
2015-06-14T01:26:36.307Z,79
2015-06-14T01:26:54.776Z,79
2015-06-14T01:27:13.322Z,79
2015-06-14T01:27:31.747Z,79
2015-06-14T01:27:50.185Z,79
2015-06-14T01:28:08.591Z,79
2015-06-14T01:28:26.997Z,79
2015-06-14T01:28:45.624Z,79
2015-06-14T01:29:04.327Z,79
2015-06-14T01:29:22.718Z,79
2015-06-14T01:29:41.284Z,79
2015-06-14T01:29:59.893Z,79
2015-06-14T01:30:18.315Z,79
2015-06-14T01:30:36.846Z,79
2015-06-14T01:30:56.427Z,79
2015-06-14T01:31:14.990Z,79
2015-06-14T01:31:33.568Z,79
2015-06-14T01:31:52.257Z,79
2015-06-14T01:32:11.039Z,79
2015-06-14T01:32:29.585Z,79
2015-06-14T01:32:48.117Z,79
2015-06-14T01:33:06.556Z,79
2015-06-14T01:33:25.041Z,79
2015-06-14T01:33:43.837Z,79
2015-06-14T01:34:02.465Z,79
2015-06-14T01:34:20.950Z,79
2015-06-14T01:34:39.356Z,79
2015-06-14T01:34:57.778Z,79
2015-06-14T01:35:16.405Z,79
2015-06-14T01:35:34.796Z,79
2015-06-14T01:35:53.421Z,79
2015-06-14T01:36:12.017Z,79
2015-06-14T01:36:30.642Z,79
2015-06-14T01:36:49.017Z,79
2015-06-14T01:37:07.611Z,79
2015-06-14T01:37:26.052Z,79
2015-06-14T01:37:44.458Z,79
2015-06-14T01:38:03.161Z,79
2015-06-14T01:38:21.663Z,79
2015-06-14T01:38:40.038Z,78
2015-06-14T01:38:58.475Z,78
2015-06-14T01:39:16.850Z,79
2015-06-14T01:39:35.524Z,79
2015-06-14T01:39:54.321Z,78
2015-06-14T01:40:12.993Z,78
2015-06-14T01:40:31.465Z,78
2015-06-14T01:40:49.965Z,78
2015-06-14T01:41:08.637Z,78
2015-06-14T01:41:27.309Z,78
2015-06-14T01:41:45.811Z,78
2015-06-14T01:42:04.357Z,78
2015-06-14T01:42:22.904Z,78
2015-06-14T01:42:41.314Z,78
2015-06-14T01:42:59.814Z,79
2015-06-14T01:43:18.548Z,78
2015-06-14T01:43:36.970Z,78
2015-06-14T01:43:55.362Z,79
2015-06-14T01:44:13.925Z,79
2015-06-14T01:44:32.519Z,78
2015-06-14T01:44:51.036Z,78
2015-06-14T01:45:09.614Z,78
2015-06-14T01:45:28.083Z,78
2015-06-14T01:45:46.505Z,77
2015-06-14T01:46:04.899Z,77
2015-06-14T01:46:23.477Z,77
2015-06-14T01:46:41.930Z,77
2015-06-14T01:47:00.433Z,78
2015-06-14T01:47:18.964Z,78
2015-06-14T01:47:37.433Z,78
2015-06-14T01:47:55.964Z,78
2015-06-14T01:48:14.560Z,78
2015-06-14T01:48:33.076Z,78
2015-06-14T01:48:51.513Z,78
2015-06-14T01:49:09.954Z,78
2015-06-14T01:49:28.422Z,78
2015-06-14T01:49:47.047Z,78
2015-06-14T01:50:05.485Z,78
2015-06-14T01:50:24.159Z,78
2015-06-14T01:50:42.737Z,78
2015-06-14T01:51:01.174Z,78
2015-06-14T01:51:19.584Z,78
2015-06-14T01:51:38.068Z,78
2015-06-14T01:51:56.599Z,78
2015-06-14T01:52:15.037Z,78
2015-06-14T01:52:33.414Z,78
2015-06-14T01:52:51.914Z,78
2015-06-14T01:53:10.461Z,78
2015-06-14T01:53:29.275Z,78
2015-06-14T01:53:47.869Z,78
2015-06-14T01:54:06.322Z,78
2015-06-14T01:54:24.806Z,78
2015-06-14T01:54:43.247Z,78
2015-06-14T01:55:01.622Z,78
2015-06-14T01:55:20.044Z,78
2015-06-14T01:55:38.749Z,78
2015-06-14T01:55:57.389Z,78
2015-06-14T01:56:15.874Z,78
2015-06-14T01:56:34.514Z,78
2015-06-14T01:56:53.080Z,78
2015-06-14T01:57:11.502Z,78
2015-06-14T01:57:29.955Z,78
2015-06-14T01:57:48.519Z,78
2015-06-14T01:58:07.113Z,78
2015-06-14T01:58:26.004Z,78
2015-06-14T01:58:44.613Z,78
2015-06-14T01:59:03.147Z,78
2015-06-14T01:59:21.647Z,78
2015-06-14T01:59:40.163Z,78
2015-06-14T01:59:58.760Z,78
2015-06-14T02:00:17.197Z,78
2015-06-14T02:00:35.900Z,78
2015-06-14T02:00:54.432Z,78
2015-06-14T02:01:12.887Z,77
2015-06-14T02:01:31.293Z,77
2015-06-14T02:01:49.902Z,77
2015-06-14T02:02:08.405Z,77
2015-06-14T02:02:26.827Z,77
2015-06-14T02:02:45.296Z,77
2015-06-14T02:03:03.796Z,77
2015-06-14T02:03:22.376Z,77
2015-06-14T02:03:40.798Z,77
2015-06-14T02:03:59.329Z,77
2015-06-14T02:04:17.863Z,77
2015-06-14T02:04:36.456Z,77
2015-06-14T02:04:54.894Z,78
2015-06-14T02:05:13.394Z,78
2015-06-14T02:05:31.928Z,78
2015-06-14T02:05:50.350Z,77
2015-06-14T02:06:08.756Z,77
2015-06-14T02:06:27.258Z,77
2015-06-14T02:06:45.774Z,77
2015-06-14T02:07:04.180Z,77
2015-06-14T02:07:22.961Z,77
2015-06-14T02:07:41.417Z,77
2015-06-14T02:07:59.964Z,77
2015-06-14T02:08:18.417Z,77
2015-06-14T02:08:36.951Z,77
2015-06-14T02:08:55.544Z,77
2015-06-14T02:09:13.966Z,77
2015-06-14T02:09:32.529Z,78
2015-06-14T02:09:50.985Z,78
2015-06-14T02:10:09.641Z,78
2015-06-14T02:10:28.141Z,78
2015-06-14T02:10:46.972Z,77
2015-06-14T02:11:05.363Z,77
2015-06-14T02:11:23.863Z,77
2015-06-14T02:11:42.504Z,77
2015-06-14T02:12:00.974Z,77
2015-06-14T02:12:19.490Z,77
2015-06-14T02:12:37.912Z,78
2015-06-14T02:12:56.508Z,77
2015-06-14T02:13:15.008Z,77
2015-06-14T02:13:33.648Z,78
2015-06-14T02:13:52.211Z,77
2015-06-14T02:14:10.635Z,77
2015-06-14T02:14:29.088Z,77
2015-06-14T02:14:47.556Z,77
2015-06-14T02:15:06.075Z,77
2015-06-14T02:15:24.466Z,77
2015-06-14T02:15:43.450Z,77
2015-06-14T02:16:01.872Z,77
2015-06-14T02:16:20.531Z,77
2015-06-14T02:16:39.125Z,77
2015-06-14T02:16:57.703Z,77
2015-06-14T02:17:16.096Z,77
2015-06-14T02:17:34.549Z,78
2015-06-14T02:17:53.064Z,78
2015-06-14T02:18:11.486Z,78
2015-06-14T02:18:29.926Z,78
2015-06-14T02:18:48.332Z,78
2015-06-14T02:19:06.910Z,78
2015-06-14T02:19:25.352Z,78
2015-06-14T02:19:43.961Z,78
2015-06-14T02:20:02.539Z,78
2015-06-14T02:20:21.024Z,78
2015-06-14T02:20:39.416Z,78
2015-06-14T02:20:57.807Z,78
2015-06-14T02:21:16.182Z,78
2015-06-14T02:21:34.668Z,78
2015-06-14T02:21:53.043Z,78
2015-06-14T02:22:11.434Z,78
2015-06-14T02:22:29.840Z,78
2015-06-14T02:22:48.359Z,78
2015-06-14T02:23:06.874Z,78
2015-06-14T02:23:25.327Z,78
2015-06-14T02:23:43.845Z,78
2015-06-14T02:24:02.314Z,78
2015-06-14T02:24:20.720Z,78
2015-06-14T02:24:39.220Z,78
2015-06-14T02:24:57.739Z,78
2015-06-14T02:25:16.114Z,77
2015-06-14T02:25:34.582Z,77
2015-06-14T02:25:53.038Z,77
2015-06-14T02:26:11.600Z,77
2015-06-14T02:26:30.084Z,77
2015-06-14T02:26:48.584Z,77
2015-06-14T02:27:07.149Z,77
2015-06-14T02:27:25.915Z,77
2015-06-14T02:27:44.383Z,77
2015-06-14T02:28:02.761Z,77
2015-06-14T02:28:21.230Z,77
2015-06-14T02:28:38.964Z,77
2015-06-14T02:28:57.386Z,77
2015-06-14T02:29:16.108Z,77
2015-06-14T02:29:34.702Z,77
2015-06-14T02:29:53.327Z,77
2015-06-14T02:30:11.813Z,77
2015-06-14T02:30:30.282Z,77
2015-06-14T02:30:48.688Z,77
2015-06-14T02:31:07.079Z,77
2015-06-14T02:31:25.472Z,77
2015-06-14T02:31:44.066Z,77
2015-06-14T02:32:02.551Z,77
2015-06-14T02:32:20.787Z,77
2015-06-14T02:32:39.506Z,77
2015-06-14T02:32:57.959Z,77
2015-06-14T02:33:16.459Z,77
2015-06-14T02:33:34.914Z,77
2015-06-14T02:33:53.367Z,77
2015-06-14T02:34:11.773Z,77
2015-06-14T02:34:30.151Z,77
2015-06-14T02:34:48.714Z,77
2015-06-14T02:35:07.339Z,77
2015-06-14T02:35:25.948Z,77
2015-06-14T02:35:44.389Z,77
2015-06-14T02:36:02.764Z,77
2015-06-14T02:36:21.357Z,77
2015-06-14T02:36:39.875Z,77
2015-06-14T02:36:58.281Z,77
2015-06-14T02:37:16.750Z,77
2015-06-14T02:37:35.266Z,77
2015-06-14T02:37:53.658Z,77
2015-06-14T02:38:12.158Z,77
2015-06-14T02:38:31.002Z,77
2015-06-14T02:38:48.755Z,77
2015-06-14T02:39:07.396Z,77
2015-06-14T02:39:25.849Z,77
2015-06-14T02:39:44.286Z,77
2015-06-14T02:40:02.882Z,77
2015-06-14T02:40:21.351Z,77
2015-06-14T02:40:39.804Z,77
2015-06-14T02:40:58.432Z,77
2015-06-14T02:41:16.916Z,77
2015-06-14T02:41:35.401Z,77
2015-06-14T02:41:53.963Z,77
2015-06-14T02:42:12.403Z,77
2015-06-14T02:42:30.887Z,77
2015-06-14T02:42:49.715Z,77
2015-06-14T02:43:08.234Z,77
2015-06-14T02:43:26.812Z,77
2015-06-14T02:43:45.328Z,77
2015-06-14T02:44:03.828Z,77
2015-06-14T02:44:22.314Z,77
2015-06-14T02:44:40.970Z,77
2015-06-14T02:44:59.455Z,77
2015-06-14T02:45:18.114Z,77
2015-06-14T02:45:36.833Z,77
2015-06-14T02:45:55.333Z,77
2015-06-14T02:46:13.817Z,77
2015-06-14T02:46:32.428Z,77
2015-06-14T02:46:50.881Z,77
2015-06-14T02:47:09.475Z,77
2015-06-14T02:47:28.150Z,77
2015-06-14T02:47:46.619Z,77
2015-06-14T02:48:05.197Z,77
2015-06-14T02:48:23.603Z,77
2015-06-14T02:48:42.277Z,77
2015-06-14T02:49:00.746Z,77
2015-06-14T02:49:19.371Z,77
2015-06-14T02:49:37.796Z,77
2015-06-14T02:49:56.655Z,77
2015-06-14T02:50:15.436Z,77
2015-06-14T02:50:33.921Z,77
2015-06-14T02:50:52.454Z,77
2015-06-14T02:51:10.938Z,77
2015-06-14T02:51:29.501Z,77
2015-06-14T02:51:48.018Z,77
2015-06-14T02:52:05.768Z,77
2015-06-14T02:52:24.159Z,77
2015-06-14T02:52:42.565Z,77
2015-06-14T02:53:01.101Z,77
2015-06-14T02:53:19.538Z,77
2015-06-14T02:53:38.007Z,77
2015-06-14T02:53:56.681Z,77
2015-06-14T02:54:15.290Z,77
2015-06-14T02:54:34.087Z,77
2015-06-14T02:54:52.681Z,77
2015-06-14T02:55:11.276Z,77
2015-06-14T02:55:29.714Z,77
2015-06-14T02:55:48.151Z,77
2015-06-14T02:56:06.669Z,77
2015-06-14T02:56:25.450Z,77
2015-06-14T02:56:43.872Z,77
2015-06-14T02:57:02.497Z,77
2015-06-14T02:57:21.047Z,77
2015-06-14T02:57:39.578Z,77
2015-06-14T02:57:58.125Z,77
2015-06-14T02:58:16.800Z,77
2015-06-14T02:58:35.425Z,77
2015-06-14T02:58:54.175Z,77
2015-06-14T02:59:12.691Z,77
2015-06-14T02:59:31.068Z,77
2015-06-14T02:59:49.630Z,77
2015-06-14T03:00:08.005Z,77
2015-06-14T03:00:26.414Z,77
2015-06-14T03:00:47.883Z,77
2015-06-14T03:01:06.352Z,77
2015-06-14T03:01:24.932Z,77
2015-06-14T03:01:43.666Z,77
2015-06-14T03:02:02.245Z,77
2015-06-14T03:02:20.916Z,77
2015-06-14T03:02:39.373Z,77
2015-06-14T03:02:57.763Z,77
2015-06-14T03:03:16.294Z,77
2015-06-14T03:03:34.734Z,77
2015-06-14T03:03:53.171Z,77
2015-06-14T03:04:11.609Z,77
2015-06-14T03:04:30.093Z,77
2015-06-14T03:04:48.502Z,77
2015-06-14T03:05:07.080Z,77
2015-06-14T03:05:25.455Z,77
2015-06-14T03:05:43.895Z,77
2015-06-14T03:06:02.567Z,77
2015-06-14T03:06:20.989Z,77
2015-06-14T03:06:39.489Z,77
2015-06-14T03:06:58.133Z,77
2015-06-14T03:07:16.586Z,77
2015-06-14T03:07:35.070Z,77
2015-06-14T03:07:53.463Z,77
2015-06-14T03:08:12.166Z,77
2015-06-14T03:08:30.697Z,77
2015-06-14T03:08:49.072Z,77
2015-06-14T03:09:07.496Z,77
2015-06-14T03:09:25.996Z,77
2015-06-14T03:09:44.871Z,77
2015-06-14T03:10:03.436Z,77
2015-06-14T03:10:21.843Z,77
2015-06-14T03:10:40.436Z,77
2015-06-14T03:10:58.968Z,77
2015-06-14T03:11:17.392Z,77
2015-06-14T03:11:35.798Z,77
2015-06-14T03:11:54.313Z,77
2015-06-14T03:12:12.129Z,77
2015-06-14T03:12:30.676Z,77
2015-06-14T03:12:49.223Z,77
2015-06-14T03:13:07.660Z,77
2015-06-14T03:13:26.287Z,77
2015-06-14T03:13:44.740Z,77
2015-06-14T03:14:03.131Z,77
2015-06-14T03:14:21.617Z,77
2015-06-14T03:14:40.024Z,77
2015-06-14T03:14:58.555Z,77
2015-06-14T03:15:17.039Z,77
2015-06-14T03:15:35.683Z,77
2015-06-14T03:15:54.277Z,77
2015-06-14T03:16:12.714Z,77
2015-06-14T03:16:31.139Z,77
2015-06-14T03:16:49.686Z,77
2015-06-14T03:17:08.311Z,77
2015-06-14T03:17:26.701Z,77
2015-06-14T03:17:45.454Z,77
2015-06-14T03:18:03.986Z,77
2015-06-14T03:18:22.486Z,77
2015-06-14T03:18:41.050Z,77
2015-06-14T03:18:59.456Z,76
2015-06-14T03:19:17.847Z,76
2015-06-14T03:19:36.363Z,76
2015-06-14T03:19:54.912Z,76
2015-06-14T03:20:13.365Z,76
2015-06-14T03:20:31.802Z,76
2015-06-14T03:20:50.321Z,76
2015-06-14T03:21:08.711Z,76
2015-06-14T03:21:27.180Z,76
2015-06-14T03:21:45.711Z,76
2015-06-14T03:22:04.214Z,76
2015-06-14T03:22:22.761Z,76
2015-06-14T03:22:41.121Z,76
2015-06-14T03:22:59.529Z,76
2015-06-14T03:23:18.045Z,76
2015-06-14T03:23:36.435Z,76
2015-06-14T03:23:54.935Z,76
2015-06-14T03:24:13.390Z,76
2015-06-14T03:24:31.984Z,76
2015-06-14T03:24:50.672Z,76
2015-06-14T03:25:09.158Z,76
2015-06-14T03:25:27.736Z,76
2015-06-14T03:25:46.220Z,76
2015-06-14T03:26:04.720Z,76
2015-06-14T03:26:23.240Z,76
2015-06-14T03:26:41.662Z,76
2015-06-14T03:27:00.146Z,76
2015-06-14T03:27:18.539Z,76
2015-06-14T03:27:36.930Z,76
2015-06-14T03:27:55.414Z,76
2015-06-14T03:28:13.883Z,76
2015-06-14T03:28:32.369Z,76
2015-06-14T03:28:50.775Z,76
2015-06-14T03:29:09.244Z,76
2015-06-14T03:29:27.700Z,76
2015-06-14T03:29:46.138Z,76
2015-06-14T03:30:04.700Z,76
2015-06-14T03:30:23.106Z,76
2015-06-14T03:30:41.483Z,76
2015-06-14T03:30:59.937Z,76
2015-06-14T03:31:18.312Z,76
2015-06-14T03:31:36.799Z,76
2015-06-14T03:31:55.221Z,76
2015-06-14T03:32:13.846Z,76
2015-06-14T03:32:32.408Z,76
2015-06-14T03:32:50.801Z,76
2015-06-14T03:33:09.254Z,76
2015-06-14T03:33:27.707Z,76
2015-06-14T03:33:46.257Z,76
2015-06-14T03:34:04.757Z,76
2015-06-14T03:34:23.132Z,76
2015-06-14T03:34:41.663Z,76
2015-06-14T03:35:00.103Z,76
2015-06-14T03:35:18.587Z,76
2015-06-14T03:35:37.056Z,76
2015-06-14T03:35:55.605Z,76
2015-06-14T03:36:14.074Z,76
2015-06-14T03:36:32.464Z,76
2015-06-14T03:36:50.902Z,76
2015-06-14T03:37:09.530Z,76
2015-06-14T03:37:27.967Z,76
2015-06-14T03:37:46.452Z,76
2015-06-14T03:38:04.985Z,76
2015-06-14T03:38:22.766Z,76
2015-06-14T03:38:41.204Z,76
2015-06-14T03:38:59.641Z,76
2015-06-14T03:39:18.035Z,76
2015-06-14T03:39:36.488Z,76
2015-06-14T03:39:55.003Z,76
2015-06-14T03:40:13.413Z,76
2015-06-14T03:40:31.835Z,76
2015-06-14T03:40:50.303Z,76
2015-06-14T03:41:08.866Z,76
2015-06-14T03:41:27.430Z,76
2015-06-14T03:41:45.805Z,76
2015-06-14T03:42:04.227Z,76
2015-06-14T03:42:22.730Z,76
2015-06-14T03:42:41.261Z,76
2015-06-14T03:42:59.636Z,76
2015-06-14T03:43:18.090Z,76
2015-06-14T03:43:36.592Z,76
2015-06-14T03:43:55.138Z,76
2015-06-14T03:44:13.545Z,76
2015-06-14T03:44:32.015Z,76
2015-06-14T03:44:50.515Z,76
2015-06-14T03:45:08.937Z,76
2015-06-14T03:45:27.609Z,76
2015-06-14T03:45:49.017Z,76
2015-06-14T03:46:07.408Z,76
2015-06-14T03:46:25.830Z,76
2015-06-14T03:46:44.271Z,76
2015-06-14T03:47:02.787Z,76
2015-06-14T03:47:21.193Z,76
2015-06-14T03:47:39.586Z,76
2015-06-14T03:47:58.008Z,76
2015-06-14T03:48:16.477Z,76
2015-06-14T03:48:34.352Z,76
2015-06-14T03:48:52.729Z,76
2015-06-14T03:49:11.135Z,76
2015-06-14T03:49:29.635Z,76
2015-06-14T03:49:48.028Z,76
2015-06-14T03:50:06.544Z,76
2015-06-14T03:50:24.935Z,76
2015-06-14T03:50:43.403Z,76
2015-06-14T03:51:01.905Z,76
2015-06-14T03:51:20.390Z,76
2015-06-14T03:51:38.780Z,76
2015-06-14T03:51:57.220Z,76
2015-06-14T03:52:15.782Z,76
2015-06-14T03:52:34.267Z,76
2015-06-14T03:52:52.720Z,76
2015-06-14T03:53:11.332Z,76
2015-06-14T03:53:29.942Z,76
2015-06-14T03:53:48.582Z,76
2015-06-14T03:54:07.194Z,76
2015-06-14T03:54:25.709Z,76
2015-06-14T03:54:44.100Z,76
2015-06-14T03:55:02.491Z,76
2015-06-14T03:55:20.900Z,76
2015-06-14T03:55:39.290Z,76
2015-06-14T03:55:57.790Z,76
2015-06-14T03:56:16.417Z,76
2015-06-14T03:56:34.886Z,76
2015-06-14T03:56:53.324Z,76
2015-06-14T03:57:11.902Z,76
2015-06-14T03:57:30.311Z,76
2015-06-14T03:57:48.827Z,76
2015-06-14T03:58:07.311Z,76
2015-06-14T03:58:25.892Z,76
2015-06-14T03:58:44.220Z,76
2015-06-14T03:59:02.642Z,76
2015-06-14T03:59:21.095Z,76
2015-06-14T03:59:39.581Z,76
2015-06-14T03:59:58.096Z,76
2015-06-14T04:00:16.581Z,76
2015-06-14T04:00:35.052Z,76
2015-06-14T04:00:53.537Z,76
2015-06-14T04:01:11.990Z,76
2015-06-14T04:01:30.365Z,76
2015-06-14T04:01:49.118Z,76
2015-06-14T04:02:07.618Z,76
2015-06-14T04:02:26.149Z,76
2015-06-14T04:02:44.745Z,76
2015-06-14T04:03:03.167Z,76
2015-06-14T04:03:21.682Z,76
2015-06-14T04:03:40.120Z,76
2015-06-14T04:03:58.606Z,76
2015-06-14T04:04:16.997Z,76
2015-06-14T04:04:35.622Z,76
2015-06-14T04:04:54.437Z,76
2015-06-14T04:05:13.062Z,76
2015-06-14T04:05:31.516Z,76
2015-06-14T04:05:50.281Z,76
2015-06-14T04:06:09.002Z,76
2015-06-14T04:06:27.377Z,76
2015-06-14T04:06:45.768Z,76
2015-06-14T04:07:04.365Z,76
2015-06-14T04:07:22.928Z,76
2015-06-14T04:07:41.412Z,76
2015-06-14T04:07:59.818Z,76
2015-06-14T04:08:18.289Z,76
2015-06-14T04:08:36.805Z,76
2015-06-14T04:08:55.320Z,76
2015-06-14T04:09:13.823Z,76
2015-06-14T04:09:32.620Z,76
2015-06-14T04:09:51.136Z,76
2015-06-14T04:10:09.636Z,76
2015-06-14T04:10:28.185Z,76
2015-06-14T04:10:47.107Z,76
2015-06-14T04:11:05.544Z,76
2015-06-14T04:11:24.171Z,76
2015-06-14T04:11:42.906Z,76
2015-06-14T04:12:01.515Z,76
2015-06-14T04:12:19.999Z,76
2015-06-14T04:12:38.393Z,76
2015-06-14T04:12:56.815Z,76
2015-06-14T04:13:15.268Z,76
2015-06-14T04:13:33.912Z,76
2015-06-14T04:13:52.490Z,76
2015-06-14T04:14:10.958Z,76
2015-06-14T04:14:29.568Z,76
2015-06-14T04:14:48.053Z,76
2015-06-14T04:15:06.459Z,76
2015-06-14T04:15:25.006Z,76
2015-06-14T04:15:43.431Z,76
2015-06-14T04:16:02.119Z,76
2015-06-14T04:16:20.728Z,76
2015-06-14T04:16:39.134Z,76
2015-06-14T04:16:57.528Z,76
2015-06-14T04:17:16.153Z,75
2015-06-14T04:17:34.840Z,76
2015-06-14T04:17:53.592Z,76
2015-06-14T04:18:12.124Z,76
2015-06-14T04:18:30.546Z,76
2015-06-14T04:18:48.921Z,75
2015-06-14T04:19:07.423Z,76
2015-06-14T04:19:25.954Z,76
2015-06-14T04:19:44.532Z,76
2015-06-14T04:20:03.254Z,75
2015-06-14T04:20:21.801Z,76
2015-06-14T04:20:40.222Z,76
2015-06-14T04:20:58.597Z,76
2015-06-14T04:21:17.115Z,76
2015-06-14T04:21:35.896Z,76
2015-06-14T04:21:54.349Z,75
2015-06-14T04:22:12.790Z,75
2015-06-14T04:22:31.384Z,76
2015-06-14T04:22:49.868Z,75
2015-06-14T04:23:08.462Z,75
2015-06-14T04:23:26.901Z,75
2015-06-14T04:23:45.323Z,75
2015-06-14T04:24:03.823Z,75
2015-06-14T04:24:22.296Z,75
2015-06-14T04:24:40.812Z,75
2015-06-14T04:24:59.265Z,75
2015-06-14T04:25:17.687Z,75
2015-06-14T04:25:36.235Z,75
2015-06-14T04:25:54.860Z,75
2015-06-14T04:26:13.267Z,75
2015-06-14T04:26:31.737Z,75
2015-06-14T04:26:50.503Z,75
2015-06-14T04:27:09.034Z,75
2015-06-14T04:27:27.487Z,75
2015-06-14T04:27:45.958Z,75
2015-06-14T04:28:04.427Z,75
2015-06-14T04:28:22.927Z,75
2015-06-14T04:28:41.555Z,75
2015-06-14T04:29:00.008Z,75
2015-06-14T04:29:18.664Z,75
2015-06-14T04:29:37.242Z,75
2015-06-14T04:29:55.635Z,75
2015-06-14T04:30:14.151Z,75
2015-06-14T04:30:32.526Z,75
2015-06-14T04:30:51.169Z,75
2015-06-14T04:31:09.560Z,75
2015-06-14T04:31:27.966Z,75
2015-06-14T04:31:46.326Z,75
2015-06-14T04:32:04.921Z,75
2015-06-14T04:32:23.359Z,75
2015-06-14T04:32:41.765Z,75
2015-06-14T04:33:00.393Z,75
2015-06-14T04:33:19.049Z,75
2015-06-14T04:33:37.846Z,75
2015-06-14T04:33:56.252Z,75
2015-06-14T04:34:14.896Z,75
2015-06-14T04:34:33.505Z,75
2015-06-14T04:34:52.130Z,75
2015-06-14T04:35:10.726Z,75
2015-06-14T04:35:29.148Z,75
2015-06-14T04:35:47.820Z,75
2015-06-14T04:36:06.601Z,75
2015-06-14T04:36:25.009Z,75
2015-06-14T04:36:43.416Z,75
2015-06-14T04:37:01.947Z,75
2015-06-14T04:37:20.559Z,75
2015-06-14T04:37:38.934Z,75
2015-06-14T04:37:57.497Z,75
2015-06-14T04:38:16.356Z,75
2015-06-14T04:38:34.749Z,75
2015-06-14T04:38:53.296Z,75
2015-06-14T04:39:11.796Z,75
2015-06-14T04:39:30.283Z,75
2015-06-14T04:39:48.689Z,75
2015-06-14T04:40:07.236Z,75
2015-06-14T04:40:25.799Z,75
2015-06-14T04:40:44.238Z,75
2015-06-14T04:41:02.613Z,75
2015-06-14T04:41:21.004Z,75
2015-06-14T04:41:39.601Z,75
2015-06-14T04:41:58.210Z,75
2015-06-14T04:42:16.647Z,75
2015-06-14T04:42:35.132Z,75
2015-06-14T04:42:53.743Z,75
2015-06-14T04:43:12.290Z,75
2015-06-14T04:43:30.821Z,75
2015-06-14T04:43:49.277Z,75
2015-06-14T04:44:07.762Z,75
2015-06-14T04:44:26.168Z,75
2015-06-14T04:44:44.840Z,75
2015-06-14T04:45:03.342Z,75
2015-06-14T04:45:21.826Z,75
2015-06-14T04:45:40.404Z,75
2015-06-14T04:45:58.954Z,75
2015-06-14T04:46:17.361Z,75
2015-06-14T04:46:35.923Z,75
2015-06-14T04:46:54.595Z,75
2015-06-14T04:47:13.206Z,75
2015-06-14T04:47:31.659Z,75
2015-06-14T04:47:50.363Z,75
2015-06-14T04:48:08.975Z,75
2015-06-14T04:48:27.491Z,75
2015-06-14T04:48:45.881Z,75
2015-06-14T04:49:04.444Z,75
2015-06-14T04:49:23.039Z,75
2015-06-14T04:49:41.508Z,75
2015-06-14T04:49:59.961Z,75
2015-06-14T04:50:18.652Z,75
2015-06-14T04:50:37.042Z,75
2015-06-14T04:50:55.589Z,75
2015-06-14T04:51:13.964Z,75
2015-06-14T04:51:32.544Z,75
2015-06-14T04:51:51.123Z,75
2015-06-14T04:52:09.513Z,75
2015-06-14T04:52:28.469Z,75
2015-06-14T04:52:47.001Z,75
2015-06-14T04:53:05.563Z,75
2015-06-14T04:53:24.141Z,75
2015-06-14T04:53:42.628Z,75
2015-06-14T04:54:01.128Z,75
2015-06-14T04:54:19.706Z,75
2015-06-14T04:54:38.349Z,75
2015-06-14T04:54:56.787Z,75
2015-06-14T04:55:15.396Z,75
2015-06-14T04:55:33.927Z,75
2015-06-14T04:55:52.461Z,75
2015-06-14T04:56:10.898Z,75
2015-06-14T04:56:29.304Z,74
2015-06-14T04:56:47.761Z,74
2015-06-14T04:57:06.479Z,74
2015-06-14T04:57:24.917Z,75
2015-06-14T04:57:43.307Z,75
2015-06-14T04:58:01.747Z,75
2015-06-14T04:58:20.153Z,75
2015-06-14T04:58:38.684Z,75
2015-06-14T04:58:57.094Z,75
2015-06-14T04:59:15.547Z,75
2015-06-14T04:59:34.062Z,75
2015-06-14T04:59:52.687Z,75
2015-06-14T05:00:11.080Z,75
2015-06-14T05:00:29.549Z,75
2015-06-14T05:00:48.049Z,74
2015-06-14T05:01:06.582Z,74
2015-06-14T05:01:25.113Z,74
2015-06-14T05:01:43.551Z,74
2015-06-14T05:02:02.145Z,74
2015-06-14T05:02:20.601Z,74
2015-06-14T05:02:39.085Z,74
2015-06-14T05:02:57.944Z,74
2015-06-14T05:03:16.588Z,74
2015-06-14T05:03:35.010Z,74
2015-06-14T05:03:53.635Z,74
2015-06-14T05:04:12.135Z,74
2015-06-14T05:04:30.607Z,74
2015-06-14T05:04:49.091Z,74
2015-06-14T05:05:07.544Z,74
2015-06-14T05:05:26.234Z,74
2015-06-14T05:05:44.640Z,75
2015-06-14T05:06:03.249Z,74
2015-06-14T05:06:21.734Z,75
2015-06-14T05:06:40.376Z,74
2015-06-14T05:06:58.954Z,74
2015-06-14T05:07:17.454Z,74
2015-06-14T05:07:35.848Z,74
2015-06-14T05:07:54.286Z,75
2015-06-14T05:08:12.864Z,75
2015-06-14T05:08:31.551Z,75
2015-06-14T05:08:49.944Z,74
2015-06-14T05:09:08.569Z,75
2015-06-14T05:09:27.163Z,75
2015-06-14T05:09:45.712Z,74
2015-06-14T05:10:04.541Z,75
2015-06-14T05:10:23.056Z,74
2015-06-14T05:10:41.619Z,74
2015-06-14T05:11:00.214Z,74
2015-06-14T05:11:18.652Z,74
2015-06-14T05:11:37.027Z,74
2015-06-14T05:11:55.749Z,74
2015-06-14T05:12:14.342Z,74
2015-06-14T05:12:32.796Z,74
2015-06-14T05:12:51.436Z,74
2015-06-14T05:13:09.829Z,75
2015-06-14T05:13:28.235Z,74
2015-06-14T05:13:46.657Z,74
2015-06-14T05:14:05.097Z,74
2015-06-14T05:14:23.488Z,74
2015-06-14T05:14:42.129Z,74
2015-06-14T05:15:00.519Z,74
2015-06-14T05:15:19.068Z,74
2015-06-14T05:15:37.943Z,74
2015-06-14T05:15:56.459Z,74
2015-06-14T05:16:14.852Z,74
2015-06-14T05:16:33.337Z,74
2015-06-14T05:16:51.884Z,74
2015-06-14T05:17:10.352Z,74
2015-06-14T05:17:28.776Z,74
2015-06-14T05:17:47.261Z,74
2015-06-14T05:18:05.651Z,74
2015-06-14T05:18:24.232Z,74
2015-06-14T05:18:42.623Z,74
2015-06-14T05:19:01.107Z,73
2015-06-14T05:19:19.529Z,73
2015-06-14T05:19:38.125Z,73
2015-06-14T05:19:56.625Z,73
2015-06-14T05:20:15.063Z,74
2015-06-14T05:20:33.925Z,74
2015-06-14T05:20:52.378Z,74
2015-06-14T05:21:10.956Z,74
2015-06-14T05:21:29.441Z,74
2015-06-14T05:21:47.818Z,74
2015-06-14T05:22:06.411Z,74
2015-06-14T05:22:24.786Z,74
2015-06-14T05:22:43.196Z,73
2015-06-14T05:23:01.617Z,73
2015-06-14T05:23:20.133Z,73
2015-06-14T05:23:38.789Z,73
2015-06-14T05:23:57.401Z,73
2015-06-14T05:24:15.948Z,73
2015-06-14T05:24:34.573Z,73
2015-06-14T05:24:53.138Z,73
2015-06-14T05:25:12.029Z,73
2015-06-14T05:25:30.466Z,73
2015-06-14T05:25:49.029Z,73
2015-06-14T05:26:07.468Z,73
2015-06-14T05:26:25.921Z,73
2015-06-14T05:26:44.531Z,73
2015-06-14T05:27:03.173Z,73
2015-06-14T05:27:21.611Z,73
2015-06-14T05:27:40.111Z,73
2015-06-14T05:27:58.970Z,73
2015-06-14T05:28:17.473Z,73
2015-06-14T05:28:36.286Z,73
2015-06-14T05:28:54.848Z,73
2015-06-14T05:29:13.476Z,73
2015-06-14T05:29:32.164Z,73
2015-06-14T05:29:50.617Z,73
2015-06-14T05:30:09.148Z,73
2015-06-14T05:30:27.838Z,73
2015-06-14T05:30:46.634Z,73
2015-06-14T05:31:05.166Z,73
2015-06-14T05:31:23.778Z,73
2015-06-14T05:31:42.216Z,73
2015-06-14T05:32:00.716Z,73
2015-06-14T05:32:19.169Z,73
2015-06-14T05:32:37.577Z,73
2015-06-14T05:32:56.014Z,73
2015-06-14T05:33:14.577Z,72
2015-06-14T05:33:33.048Z,72